Time;durP1;ratioP1;P1;durP2;ratioP2;P2;SDS_P1;SDS_P2;PMS_P1;PMS_P2;Temp;Humidity;BMP_temperature;BMP_pressure;BME280_temperature;BME280_humidity;BME280_pressure;Samples;Min_cycle;Max_cycle;Signal;HPM_P1;HPM_P2
2023/12/14 00:00:29;;;;;;;138.25;63.15;;;17.70;67.80;;;;;;5050190;28;20046;-38
2023/12/14 00:02:55;;;;;;;137.38;62.60;;;17.70;67.80;;;;;;5049630;28;20044;-40
2023/12/14 00:05:20;;;;;;;136.70;62.63;;;17.60;67.90;;;;;;5051821;28;20040;-37
2023/12/14 00:07:46;;;;;;;138.32;62.60;;;17.60;68.30;;;;;;5058996;28;20056;-41
2023/12/14 00:10:12;;;;;;;137.25;62.83;;;17.60;68.10;;;;;;5054661;28;20061;-44
2023/12/14 00:12:38;;;;;;;138.65;63.50;;;17.50;68.10;;;;;;5047695;28;20502;-39
2023/12/14 00:15:04;;;;;;;138.80;63.05;;;17.60;68.20;;;;;;5054715;28;20160;-39
2023/12/14 00:17:30;;;;;;;137.98;63.40;;;17.50;68.40;;;;;;5056644;28;20041;-43
2023/12/14 00:19:56;;;;;;;137.63;62.65;;;17.50;68.30;;;;;;5057067;28;20121;-37
2023/12/14 00:22:21;;;;;;;138.50;63.38;;;17.40;68.40;;;;;;5049109;28;20045;-44
2023/12/14 00:24:47;;;;;;;138.65;63.60;;;17.30;68.70;;;;;;5053163;28;20203;-42
2023/12/14 00:27:12;;;;;;;137.40;64.20;;;17.30;68.70;;;;;;5055296;28;20040;-42
2023/12/14 00:29:38;;;;;;;138.00;63.33;;;17.30;68.40;;;;;;5057379;28;20049;-43
2023/12/14 00:32:04;;;;;;;136.90;63.05;;;17.30;68.40;;;;;;5054612;28;20037;-41
2023/12/14 00:34:30;;;;;;;136.85;62.53;;;17.40;68.60;;;;;;5056680;28;20053;-43
2023/12/14 00:36:56;;;;;;;139.35;64.30;;;17.40;68.40;;;;;;5054544;28;20039;-45
2023/12/14 00:39:21;;;;;;;136.40;63.55;;;17.40;68.50;;;;;;5044532;28;20041;-41
2023/12/14 00:41:47;;;;;;;137.40;63.10;;;17.30;68.40;;;;;;5049654;28;20044;-46
2023/12/14 00:44:12;;;;;;;137.48;62.60;;;17.20;68.50;;;;;;5052752;28;20103;-44
2023/12/14 00:46:38;;;;;;;140.50;64.75;;;17.20;68.70;;;;;;5057921;28;20037;-43
2023/12/14 00:49:04;;;;;;;136.80;63.63;;;17.20;68.80;;;;;;5055816;28;20049;-43
2023/12/14 00:51:29;;;;;;;136.85;63.13;;;17.10;68.80;;;;;;5057014;28;21879;-38
2023/12/14 00:53:55;;;;;;;138.75;63.55;;;17.10;68.90;;;;;;5054197;28;20191;-43
2023/12/14 00:56:21;;;;;;;137.02;62.85;;;17.10;69.00;;;;;;5063295;28;20048;-37
2023/12/14 00:58:46;;;;;;;137.77;63.60;;;17.10;68.80;;;;;;5056858;28;20029;-39
2023/12/14 01:01:12;;;;;;;138.30;64.38;;;17.20;69.10;;;;;;5052845;28;20044;-39
2023/12/14 01:03:38;;;;;;;137.50;62.80;;;17.10;68.80;;;;;;5051975;28;20049;-43
2023/12/14 01:06:03;;;;;;;136.52;62.60;;;17.10;69.00;;;;;;5052071;28;20084;-37
2023/12/14 01:08:29;;;;;;;137.63;63.42;;;17.10;69.00;;;;;;5054305;28;20033;-39
2023/12/14 01:10:55;;;;;;;137.38;62.75;;;17.10;69.00;;;;;;5050568;28;20045;-37
2023/12/14 01:13:20;;;;;;;136.68;62.88;;;17.10;69.10;;;;;;5055502;28;20029;-46
2023/12/14 01:15:46;;;;;;;134.68;62.53;;;17.10;69.20;;;;;;5052458;28;20483;-40
2023/12/14 01:18:12;;;;;;;135.55;62.47;;;17.10;69.00;;;;;;5053798;28;20057;-41
2023/12/14 01:20:39;;;;;;;136.10;62.63;;;17.00;69.20;;;;;;5052399;28;20233;-43
2023/12/14 01:23:04;;;;;;;136.00;63.17;;;17.00;69.20;;;;;;5051665;28;20119;-41
2023/12/14 01:25:30;;;;;;;134.77;62.35;;;17.00;69.10;;;;;;5054682;28;20150;-41
2023/12/14 01:27:56;;;;;;;135.02;62.42;;;17.00;69.30;;;;;;5050400;28;20095;-44
2023/12/14 01:30:21;;;;;;;137.18;63.10;;;17.00;69.30;;;;;;5053130;28;20049;-40
2023/12/14 01:32:47;;;;;;;138.25;63.22;;;16.90;69.20;;;;;;5052226;28;20048;-39
2023/12/14 01:35:13;;;;;;;138.13;63.72;;;16.90;69.30;;;;;;5055444;28;20045;-42
2023/12/14 01:37:38;;;;;;;137.30;64.15;;;16.90;69.30;;;;;;5057181;28;20037;-39
2023/12/14 01:40:06;;;;;;;140.45;63.63;;;16.90;69.20;;;;;;5050900;28;20075;-36
2023/12/14 01:42:31;;;;;;;136.30;63.17;;;16.90;69.40;;;;;;5052355;28;20135;-42
2023/12/14 01:44:57;;;;;;;136.32;63.47;;;16.90;69.50;;;;;;5057573;28;20502;-38
2023/12/14 01:47:22;;;;;;;137.15;63.67;;;16.80;69.50;;;;;;5056812;28;20183;-41
2023/12/14 01:49:48;;;;;;;136.77;63.25;;;16.80;69.40;;;;;;5058041;28;20156;-45
2023/12/14 01:52:14;;;;;;;135.98;63.45;;;16.80;69.50;;;;;;5054777;28;20037;-41
2023/12/14 01:54:40;;;;;;;136.65;63.03;;;16.80;69.60;;;;;;5054731;28;20151;-38
2023/12/14 01:57:05;;;;;;;133.90;62.30;;;16.80;69.50;;;;;;5057186;28;20120;-40
2023/12/14 01:59:31;;;;;;;134.70;62.95;;;16.70;69.70;;;;;;5054366;28;20079;-43
2023/12/14 02:01:57;;;;;;;135.50;62.85;;;16.70;69.50;;;;;;5055292;28;20465;-45
2023/12/14 02:04:25;;;;;;;136.02;63.30;;;16.70;69.60;;;;;;5054093;28;20045;-39
2023/12/14 02:06:51;;;;;;;133.95;61.78;;;16.70;69.80;;;;;;5058889;28;20033;-37
2023/12/14 02:09:16;;;;;;;135.70;62.00;;;16.70;69.80;;;;;;5060892;28;20051;-43
2023/12/14 02:11:42;;;;;;;135.80;61.75;;;16.70;69.60;;;;;;5051913;28;20044;-38
2023/12/14 02:14:12;;;;;;;131.85;60.50;;;16.70;69.70;;;;;;5057017;28;20036;-38
2023/12/14 02:16:38;;;;;;;133.07;60.80;;;16.60;69.70;;;;;;5051464;28;20040;-44
2023/12/14 02:19:05;;;;;;;134.90;61.35;;;16.60;69.50;;;;;;5052946;28;20044;-39
2023/12/14 02:21:30;;;;;;;134.45;61.47;;;16.60;69.60;;;;;;5053642;28;20041;-39
2023/12/14 02:23:58;;;;;;;131.48;60.13;;;16.60;69.60;;;;;;5056247;28;20038;-39
2023/12/14 02:26:24;;;;;;;131.85;60.58;;;16.60;70.60;;;;;;5058430;28;20041;-44
2023/12/14 02:28:49;;;;;;;134.68;60.67;;;16.60;69.80;;;;;;5053217;28;20043;-42
2023/12/14 02:31:15;;;;;;;135.43;60.88;;;16.50;69.90;;;;;;5056080;28;20042;-43
2023/12/14 02:33:41;;;;;;;133.73;59.90;;;16.60;69.80;;;;;;5054806;28;20040;-37
2023/12/14 02:36:07;;;;;;;131.13;60.13;;;16.60;69.90;;;;;;5056872;28;20042;-41
2023/12/14 02:38:33;;;;;;;131.18;59.63;;;16.50;70.00;;;;;;5056933;28;20186;-41
2023/12/14 02:40:58;;;;;;;130.82;60.15;;;16.50;70.00;;;;;;5056319;28;20091;-43
2023/12/14 02:43:24;;;;;;;131.50;60.47;;;16.50;70.20;;;;;;5056038;28;20661;-39
2023/12/14 02:45:50;;;;;;;130.15;59.03;;;16.50;70.20;;;;;;5057295;28;20130;-40
2023/12/14 02:48:15;;;;;;;130.50;59.20;;;16.50;70.10;;;;;;5060790;28;20599;-46
2023/12/14 02:50:41;;;;;;;131.68;59.95;;;16.50;70.20;;;;;;5054713;28;20052;-44
2023/12/14 02:53:07;;;;;;;129.73;59.60;;;16.50;70.40;;;;;;5057610;28;20546;-43
2023/12/14 02:55:32;;;;;;;130.00;59.22;;;16.50;70.30;;;;;;5059752;28;20037;-47
2023/12/14 02:57:58;;;;;;;129.95;59.00;;;16.50;70.40;;;;;;5052477;28;20038;-41
2023/12/14 03:00:24;;;;;;;129.10;58.63;;;16.40;70.10;;;;;;5057829;28;20053;-44
2023/12/14 03:02:49;;;;;;;129.25;59.28;;;16.40;70.00;;;;;;5053844;28;20126;-36
2023/12/14 03:05:15;;;;;;;128.25;58.20;;;16.40;70.40;;;;;;5053128;28;20044;-39
2023/12/14 03:07:41;;;;;;;128.55;58.45;;;16.40;70.40;;;;;;5059821;28;20121;-41
2023/12/14 03:10:07;;;;;;;128.68;58.20;;;16.30;70.20;;;;;;5058029;28;20137;-39
2023/12/14 03:12:33;;;;;;;127.20;58.00;;;16.30;70.00;;;;;;5055121;28;20099;-40
2023/12/14 03:14:59;;;;;;;128.00;58.75;;;16.30;70.00;;;;;;5059271;28;20037;-42
2023/12/14 03:17:24;;;;;;;127.25;58.38;;;16.30;70.20;;;;;;5056554;28;20166;-41
2023/12/14 03:19:50;;;;;;;127.63;57.95;;;16.20;70.00;;;;;;5055078;28;20124;-39
2023/12/14 03:22:16;;;;;;;128.32;58.10;;;16.20;70.20;;;;;;5057483;28;20041;-41
2023/12/14 03:24:42;;;;;;;129.40;58.38;;;16.20;70.10;;;;;;5057418;28;20036;-43
2023/12/14 03:27:07;;;;;;;127.93;57.67;;;16.10;70.00;;;;;;5057009;28;20041;-40
2023/12/14 03:29:33;;;;;;;126.60;57.22;;;16.10;70.50;;;;;;5056921;28;20041;-43
2023/12/14 03:31:59;;;;;;;128.20;58.03;;;16.10;70.20;;;;;;5060165;28;20033;-39
2023/12/14 03:34:25;;;;;;;127.90;57.50;;;16.10;70.20;;;;;;5052203;28;20092;-39
2023/12/14 03:36:51;;;;;;;125.60;57.35;;;16.10;70.40;;;;;;5056131;28;20099;-43
2023/12/14 03:39:16;;;;;;;127.35;57.30;;;16.10;70.20;;;;;;5055274;28;20029;-40
2023/12/14 03:41:43;;;;;;;127.75;57.72;;;16.20;70.50;;;;;;5055915;28;20438;-42
2023/12/14 03:44:08;;;;;;;128.52;58.05;;;16.20;70.50;;;;;;5054118;28;20103;-41
2023/12/14 03:46:34;;;;;;;126.78;57.63;;;16.10;70.40;;;;;;5057308;28;20132;-38
2023/12/14 03:49:00;;;;;;;127.53;57.58;;;16.10;70.50;;;;;;5055369;28;20468;-45
2023/12/14 03:51:26;;;;;;;128.60;58.33;;;16.10;70.60;;;;;;5059655;28;20527;-39
2023/12/14 03:53:52;;;;;;;125.97;57.30;;;16.10;70.60;;;;;;5054811;28;20127;-39
2023/12/14 03:56:17;;;;;;;128.65;58.20;;;16.10;70.60;;;;;;5056329;28;20507;-40
2023/12/14 03:58:43;;;;;;;128.50;57.80;;;16.10;70.60;;;;;;5056377;28;20045;-42
2023/12/14 04:01:20;;;;;;;125.25;56.97;;;16.10;70.70;;;;;;5056243;28;20495;-38
2023/12/14 04:03:46;;;;;;;126.43;56.88;;;16.10;70.70;;;;;;5056566;28;20116;-45
2023/12/14 04:06:13;;;;;;;127.55;57.30;;;16.10;70.80;;;;;;5053103;28;20041;-41
2023/12/14 04:08:39;;;;;;;128.00;57.47;;;16.10;70.70;;;;;;5056067;28;20034;-38
2023/12/14 04:11:05;;;;;;;125.85;57.13;;;16.00;70.90;;;;;;5053618;28;21316;-43
2023/12/14 04:13:31;;;;;;;127.50;57.65;;;16.00;70.60;;;;;;5044942;28;20045;-38
2023/12/14 04:15:57;;;;;;;127.72;56.92;;;16.10;70.90;;;;;;5055021;28;20075;-42
2023/12/14 04:18:23;;;;;;;127.50;57.28;;;16.10;70.80;;;;;;5053219;28;20055;-37
2023/12/14 04:20:49;;;;;;;126.63;57.45;;;16.10;70.80;;;;;;5047482;28;20045;-37
2023/12/14 04:23:14;;;;;;;128.27;57.17;;;16.00;70.40;;;;;;5046181;28;20154;-38
2023/12/14 04:25:40;;;;;;;125.55;56.78;;;16.00;70.80;;;;;;5057777;28;20156;-42
2023/12/14 04:28:05;;;;;;;125.13;56.55;;;16.00;70.90;;;;;;5056519;28;20037;-41
2023/12/14 04:30:31;;;;;;;127.93;57.28;;;16.00;70.80;;;;;;5052684;28;20041;-40
2023/12/14 04:32:57;;;;;;;126.40;56.85;;;16.00;70.70;;;;;;5052308;28;20143;-41
2023/12/14 04:35:22;;;;;;;126.25;56.58;;;16.00;70.80;;;;;;5047509;28;20049;-40
2023/12/14 04:37:48;;;;;;;126.22;56.97;;;15.90;70.70;;;;;;5053653;28;20049;-42
2023/12/14 04:40:14;;;;;;;125.65;56.55;;;15.90;70.90;;;;;;5050776;28;20052;-44
2023/12/14 04:42:39;;;;;;;127.00;57.13;;;15.90;71.10;;;;;;5050208;28;20033;-42
2023/12/14 04:45:06;;;;;;;126.03;56.55;;;15.90;71.10;;;;;;5053507;28;20056;-41
2023/12/14 04:47:31;;;;;;;126.05;56.78;;;15.90;71.00;;;;;;5055676;28;20038;-39
2023/12/14 04:49:57;;;;;;;126.97;57.05;;;15.90;71.20;;;;;;5055436;28;20059;-40
2023/12/14 04:52:23;;;;;;;127.18;57.45;;;15.90;71.10;;;;;;5058772;28;20128;-45
2023/12/14 04:54:48;;;;;;;127.65;57.20;;;15.80;71.50;;;;;;5052080;28;20373;-39
2023/12/14 04:57:14;;;;;;;126.30;57.00;;;15.90;71.10;;;;;;5050929;28;20037;-40
2023/12/14 04:59:42;;;;;;;127.57;56.97;;;15.90;71.20;;;;;;5054104;28;20033;-41
2023/12/14 05:02:07;;;;;;;126.15;56.75;;;15.90;71.10;;;;;;5056164;28;20048;-43
2023/12/14 05:04:33;;;;;;;124.88;56.03;;;15.90;71.10;;;;;;5051232;28;20041;-45
2023/12/14 05:06:58;;;;;;;126.00;56.85;;;15.90;71.20;;;;;;5051963;28;20075;-45
2023/12/14 05:09:24;;;;;;;127.60;57.47;;;15.90;71.00;;;;;;5048841;28;20034;-43
2023/12/14 05:11:50;;;;;;;126.75;56.75;;;15.80;71.00;;;;;;5049562;28;20033;-44
2023/12/14 05:14:15;;;;;;;125.82;56.72;;;15.80;71.30;;;;;;5052170;28;20068;-41
2023/12/14 05:16:41;;;;;;;125.55;56.85;;;15.90;71.30;;;;;;5057229;28;20096;-41
2023/12/14 05:19:06;;;;;;;126.07;56.78;;;15.90;71.30;;;;;;5054831;28;20033;-41
2023/12/14 05:21:32;;;;;;;125.63;56.65;;;15.90;71.20;;;;;;5058440;28;20444;-40
2023/12/14 05:23:58;;;;;;;126.00;57.45;;;15.90;71.20;;;;;;5053934;28;20568;-42
2023/12/14 05:26:24;;;;;;;127.85;57.05;;;15.80;71.20;;;;;;5052153;28;20053;-45
2023/12/14 05:28:50;;;;;;;124.30;56.22;;;15.80;71.20;;;;;;5052947;28;20029;-42
2023/12/14 05:31:15;;;;;;;127.47;56.75;;;15.80;71.20;;;;;;5050093;28;20033;-43
2023/12/14 05:33:41;;;;;;;125.13;56.55;;;15.80;71.20;;;;;;5051974;28;20132;-38
2023/12/14 05:36:10;;;;;;;125.65;56.55;;;15.80;71.10;;;;;;5055774;28;20483;-41
2023/12/14 05:38:39;;;;;;;125.03;56.47;;;15.80;71.20;;;;;;5053579;28;20041;-40
2023/12/14 05:41:05;;;;;;;126.00;56.90;;;15.80;71.20;;;;;;5055404;28;20061;-45
2023/12/14 05:43:31;;;;;;;124.15;56.15;;;15.80;71.20;;;;;;5053358;28;20605;-44
2023/12/14 05:45:57;;;;;;;125.38;56.78;;;15.80;71.20;;;;;;5054039;28;20678;-38
2023/12/14 05:48:22;;;;;;;127.25;56.60;;;15.80;71.20;;;;;;5048849;28;20040;-42
2023/12/14 05:50:48;;;;;;;126.38;56.83;;;15.80;71.20;;;;;;5048839;28;20503;-34
2023/12/14 05:53:14;;;;;;;124.45;56.28;;;15.80;71.10;;;;;;5058980;28;20055;-35
2023/12/14 05:55:40;;;;;;;125.35;56.80;;;15.80;71.20;;;;;;5049611;28;20051;-35
2023/12/14 05:58:07;;;;;;;124.22;55.55;;;15.80;71.20;;;;;;5053959;28;20431;-35
2023/12/14 06:00:34;;;;;;;125.85;57.03;;;15.80;71.30;;;;;;5049039;28;20043;-34
2023/12/14 06:03:00;;;;;;;125.78;56.50;;;15.80;71.30;;;;;;5058265;28;20156;-35
2023/12/14 06:05:26;;;;;;;124.55;56.20;;;15.80;71.30;;;;;;5056725;28;20050;-34
2023/12/14 06:07:51;;;;;;;125.63;56.83;;;15.80;71.10;;;;;;5050521;28;20116;-35
2023/12/14 06:10:17;;;;;;;126.40;56.78;;;15.80;71.30;;;;;;5050669;28;20088;-35
2023/12/14 06:12:43;;;;;;;125.00;56.30;;;15.70;71.10;;;;;;5050093;28;20040;-34
2023/12/14 06:15:09;;;;;;;129.00;57.13;;;15.70;71.60;;;;;;5056132;28;20128;-35
2023/12/14 06:17:37;;;;;;;125.85;56.17;;;15.70;71.70;;;;;;5050707;28;20116;-44
2023/12/14 06:20:04;;;;;;;127.75;56.78;;;15.70;72.40;;;;;;5051352;28;20044;-45
2023/12/14 06:22:29;;;;;;;128.18;56.67;;;15.70;71.80;;;;;;5049693;28;20042;-45
2023/12/14 06:24:55;;;;;;;127.63;56.60;;;15.70;71.70;;;;;;5053576;28;20103;-45
2023/12/14 06:27:26;;;;;;;126.80;56.78;;;15.70;71.90;;;;;;5053863;28;20028;-45
2023/12/14 06:29:52;;;;;;;131.27;57.20;;;15.70;71.80;;;;;;5049374;28;20104;-45
2023/12/14 06:32:17;;;;;;;133.18;58.03;;;15.70;72.00;;;;;;5047655;28;20068;-46
2023/12/14 06:34:43;;;;;;;127.68;56.92;;;15.70;72.20;;;;;;5042226;28;20131;-46
2023/12/14 06:37:09;;;;;;;128.05;56.75;;;15.70;72.30;;;;;;5033995;28;20087;-45
2023/12/14 06:39:35;;;;;;;126.57;57.42;;;15.70;72.20;;;;;;5047828;28;20643;-46
2023/12/14 06:42:01;;;;;;;128.43;57.17;;;15.70;72.30;;;;;;5045146;28;20067;-46
2023/12/14 06:44:27;;;;;;;129.30;56.83;;;15.60;72.10;;;;;;5044516;28;20045;-46
2023/12/14 06:46:54;;;;;;;130.88;56.70;;;15.60;72.50;;;;;;5050387;28;20044;-46
2023/12/14 06:49:20;;;;;;;131.68;56.78;;;15.70;72.50;;;;;;5053990;28;20786;-44
2023/12/14 06:51:46;;;;;;;132.55;57.30;;;15.70;72.30;;;;;;5056224;28;20122;-46
2023/12/14 06:54:12;;;;;;;128.98;56.55;;;15.70;71.90;;;;;;5053493;28;20515;-45
2023/12/14 06:56:37;;;;;;;130.68;56.85;;;15.80;71.50;;;;;;5056376;28;20840;-45
2023/12/14 06:59:03;;;;;;;127.07;57.47;;;15.80;71.40;;;;;;5044311;28;20528;-46
2023/12/14 07:01:29;;;;;;;126.30;57.13;;;15.70;71.20;;;;;;5038012;28;20375;-47
2023/12/14 07:03:54;;;;;;;127.22;57.25;;;15.70;71.30;;;;;;5048790;28;20056;-47
2023/12/14 07:06:21;;;;;;;127.22;56.67;;;15.80;70.90;;;;;;5055510;28;20518;-46
2023/12/14 07:08:47;;;;;;;128.25;56.90;;;15.80;70.70;;;;;;5039819;28;20092;-46
2023/12/14 07:11:13;;;;;;;126.85;56.28;;;15.70;70.70;;;;;;5053142;28;20127;-35
2023/12/14 07:13:39;;;;;;;126.30;56.90;;;15.60;70.80;;;;;;5055514;28;20124;-34
2023/12/14 07:16:09;;;;;;;130.35;57.13;;;15.60;70.80;;;;;;5057510;28;20124;-36
2023/12/14 07:18:40;;;;;;;132.15;57.25;;;15.50;71.00;;;;;;5057328;28;20608;-46
2023/12/14 07:21:06;;;;;;;128.00;57.53;;;15.50;71.20;;;;;;5051089;28;20129;-47
2023/12/14 07:23:34;;;;;;;130.15;56.97;;;15.50;71.20;;;;;;5052643;28;20586;-48
2023/12/14 07:26:00;;;;;;;130.70;56.55;;;15.50;71.30;;;;;;5057103;28;20088;-47
2023/12/14 07:28:26;;;;;;;126.43;56.75;;;15.50;71.20;;;;;;5051760;28;20519;-47
2023/12/14 07:30:52;;;;;;;129.93;56.78;;;15.50;72.40;;;;;;5055792;28;20046;-47
2023/12/14 07:33:18;;;;;;;127.80;57.17;;;15.60;72.50;;;;;;5053488;28;20454;-47
2023/12/14 07:35:43;;;;;;;127.03;57.22;;;15.70;72.40;;;;;;5042556;28;20567;-49
2023/12/14 07:38:13;;;;;;;130.13;57.70;;;15.90;72.20;;;;;;5050460;28;20124;-43
2023/12/14 07:40:39;;;;;;;133.88;57.60;;;16.10;71.40;;;;;;5048365;28;20189;-35
2023/12/14 07:43:05;;;;;;;131.70;56.90;;;16.20;71.50;;;;;;5051593;28;20045;-37
2023/12/14 07:45:30;;;;;;;127.80;57.17;;;16.30;70.90;;;;;;5054347;28;20171;-36
2023/12/14 07:47:56;;;;;;;136.73;58.10;;;16.30;70.50;;;;;;5056350;28;20040;-37
2023/12/14 07:50:22;;;;;;;136.45;58.15;;;16.40;70.50;;;;;;5052315;28;20045;-37
2023/12/14 07:52:47;;;;;;;130.40;57.70;;;16.40;70.40;;;;;;5046232;28;20443;-38
2023/12/14 07:55:13;;;;;;;130.98;57.60;;;16.50;70.40;;;;;;5034776;28;21704;-34
2023/12/14 07:57:39;;;;;;;129.35;57.38;;;16.50;70.60;;;;;;5052521;28;20048;-35
2023/12/14 08:00:08;;;;;;;134.73;58.10;;;16.50;71.30;;;;;;5049960;28;20045;-35
2023/12/14 08:02:34;;;;;;;132.63;58.13;;;16.60;71.30;;;;;;5049330;28;20072;-35
2023/12/14 08:04:59;;;;;;;128.02;57.00;;;16.60;71.10;;;;;;5043941;28;20041;-36
2023/12/14 08:07:28;;;;;;;129.77;58.15;;;16.70;71.10;;;;;;5044581;28;20155;-35
2023/12/14 08:09:55;;;;;;;131.38;57.47;;;16.70;71.20;;;;;;5041835;28;20045;-37
2023/12/14 08:12:21;;;;;;;128.55;57.85;;;16.70;70.90;;;;;;5038934;28;20037;-36
2023/12/14 08:14:47;;;;;;;132.88;57.72;;;16.70;70.90;;;;;;5047764;28;20076;-36
2023/12/14 08:17:13;;;;;;;129.38;57.60;;;16.80;71.00;;;;;;5055760;28;21352;-34
2023/12/14 08:19:38;;;;;;;134.82;58.00;;;16.80;70.50;;;;;;5052962;28;20364;-35
2023/12/14 08:22:04;;;;;;;132.95;58.53;;;16.90;70.30;;;;;;5044572;28;20538;-41
2023/12/14 08:24:30;;;;;;;134.93;57.60;;;17.00;70.10;;;;;;5055946;28;20110;-38
2023/12/14 08:26:55;;;;;;;131.80;57.90;;;17.10;69.90;;;;;;5055304;28;20033;-39
2023/12/14 08:29:22;;;;;;;131.73;57.75;;;17.20;69.50;;;;;;5049474;28;20045;-40
2023/12/14 08:31:48;;;;;;;131.10;57.92;;;17.20;69.40;;;;;;5052650;28;20060;-42
2023/12/14 08:34:14;;;;;;;132.90;57.63;;;17.30;69.30;;;;;;5048774;28;20029;-37
2023/12/14 08:36:40;;;;;;;134.07;57.60;;;17.30;69.10;;;;;;5051858;28;20095;-37
2023/12/14 08:39:06;;;;;;;131.52;57.85;;;17.40;68.60;;;;;;5045333;28;20034;-40
2023/12/14 08:41:32;;;;;;;132.82;58.25;;;17.40;68.80;;;;;;5048230;28;20041;-37
2023/12/14 08:43:58;;;;;;;135.65;58.88;;;17.40;69.20;;;;;;5049274;28;20972;-43
2023/12/14 08:46:23;;;;;;;133.57;58.38;;;17.40;69.30;;;;;;5048545;28;20065;-48
2023/12/14 08:48:49;;;;;;;134.98;58.53;;;17.50;69.20;;;;;;5050466;28;20104;-39
2023/12/14 08:51:15;;;;;;;133.65;58.45;;;17.50;69.60;;;;;;5047593;28;20044;-43
2023/12/14 08:53:40;;;;;;;130.73;58.45;;;17.50;69.10;;;;;;5048319;28;20034;-40
2023/12/14 08:56:08;;;;;;;134.02;58.80;;;17.60;69.00;;;;;;5054584;28;20055;-40
2023/12/14 08:58:33;;;;;;;135.35;58.53;;;17.70;68.80;;;;;;5044793;28;21506;-44
2023/12/14 09:00:59;;;;;;;136.93;58.85;;;17.70;68.80;;;;;;5050237;28;20049;-37
2023/12/14 09:03:26;;;;;;;131.68;58.88;;;17.70;68.60;;;;;;5056377;28;20034;-42
2023/12/14 09:05:52;;;;;;;138.82;59.17;;;17.70;68.40;;;;;;5051489;28;20120;-40
2023/12/14 09:08:18;;;;;;;137.60;59.53;;;17.80;68.50;;;;;;5051243;28;20084;-41
2023/12/14 09:10:44;;;;;;;135.38;59.67;;;17.80;68.40;;;;;;5047088;28;20132;-43
2023/12/14 09:13:10;;;;;;;134.80;59.25;;;17.80;68.30;;;;;;5052798;28;20063;-43
2023/12/14 09:15:36;;;;;;;134.07;59.88;;;17.80;68.20;;;;;;5048627;28;20472;-39
2023/12/14 09:18:02;;;;;;;133.57;59.45;;;17.80;68.10;;;;;;5050096;28;20585;-39
2023/12/14 09:20:28;;;;;;;135.88;59.95;;;17.80;68.10;;;;;;5044446;28;20052;-43
2023/12/14 09:22:54;;;;;;;132.85;59.20;;;17.90;68.10;;;;;;5048644;28;20073;-39
2023/12/14 09:25:20;;;;;;;134.27;59.10;;;17.90;67.90;;;;;;5050762;28;20132;-41
2023/12/14 09:27:45;;;;;;;135.18;59.38;;;17.90;67.60;;;;;;5050247;28;20119;-44
2023/12/14 09:30:12;;;;;;;141.32;66.45;;;17.90;67.50;;;;;;5053751;28;20057;-40
2023/12/14 09:32:39;;;;;;;144.60;68.15;;;17.90;67.30;;;;;;5050618;28;20039;-40
2023/12/14 09:35:06;;;;;;;144.07;69.05;;;17.80;67.50;;;;;;5046137;28;20049;-40
2023/12/14 09:37:32;;;;;;;143.82;68.45;;;17.80;67.70;;;;;;5048281;28;20056;-37
2023/12/14 09:39:57;;;;;;;148.52;70.18;;;17.80;67.10;;;;;;5044458;28;20042;-37
2023/12/14 09:42:23;;;;;;;145.15;69.55;;;17.80;67.10;;;;;;5053036;28;20168;-44
2023/12/14 09:44:50;;;;;;;145.80;68.97;;;17.80;67.30;;;;;;5052169;28;20041;-43
2023/12/14 09:47:15;;;;;;;145.38;68.35;;;17.80;67.40;;;;;;5049095;28;20037;-37
2023/12/14 09:49:44;;;;;;;143.10;66.88;;;17.90;66.80;;;;;;5049019;28;20049;-37
2023/12/14 09:52:10;;;;;;;141.48;67.28;;;17.90;66.90;;;;;;5042416;28;20043;-37
2023/12/14 09:54:35;;;;;;;139.80;66.53;;;18.00;67.10;;;;;;5044898;28;20049;-36
2023/12/14 09:57:01;;;;;;;140.05;66.43;;;18.00;66.90;;;;;;5048131;28;20091;-39
2023/12/14 09:59:27;;;;;;;142.93;66.68;;;18.00;66.90;;;;;;5041004;28;20045;-40
2023/12/14 10:01:52;;;;;;;141.90;66.55;;;18.10;66.80;;;;;;5050071;28;20079;-40
2023/12/14 10:04:23;;;;;;;142.68;67.18;;;18.20;66.80;;;;;;5055520;28;20045;-41
2023/12/14 10:06:49;;;;;;;140.48;65.53;;;18.20;66.80;;;;;;5052688;28;20572;-37
2023/12/14 10:09:15;;;;;;;142.00;66.10;;;18.20;66.50;;;;;;5046183;28;20045;-38
2023/12/14 10:11:42;;;;;;;140.52;65.15;;;18.30;66.60;;;;;;5054915;28;20846;-40
2023/12/14 10:14:25;;;;;;;139.05;64.28;;;18.30;66.60;;;;;;5046675;28;20477;-39
2023/12/14 10:16:52;;;;;;;137.77;64.05;;;18.30;66.50;;;;;;5052192;28;20053;-38
2023/12/14 10:19:21;;;;;;;140.98;65.03;;;18.40;66.50;;;;;;5052404;28;20637;-37
2023/12/14 10:21:48;;;;;;;137.57;62.80;;;18.40;66.40;;;;;;5051322;28;20051;-39
2023/12/14 10:24:14;;;;;;;139.05;63.05;;;18.40;66.20;;;;;;5051035;28;20095;-43
2023/12/14 10:26:40;;;;;;;138.88;63.80;;;18.60;65.10;;;;;;5053206;28;20382;-41
2023/12/14 10:29:06;;;;;;;139.95;63.53;;;18.70;64.40;;;;;;5054337;28;20708;-42
2023/12/14 10:31:37;;;;;;;137.80;62.80;;;18.70;63.90;;;;;;5050288;28;20037;-40
2023/12/14 10:34:03;;;;;;;139.25;62.80;;;18.80;63.70;;;;;;5044765;28;20614;-39
2023/12/14 10:36:30;;;;;;;140.20;62.08;;;18.80;63.50;;;;;;5049763;28;20056;-34
2023/12/14 10:38:58;;;;;;;138.02;62.22;;;18.80;63.30;;;;;;5051881;28;20045;-36
2023/12/14 10:41:24;;;;;;;137.77;61.60;;;18.80;64.40;;;;;;5048211;28;20546;-34
2023/12/14 10:43:54;;;;;;;138.02;61.95;;;18.90;64.50;;;;;;5053026;28;20072;-44
2023/12/14 10:46:20;;;;;;;138.17;61.93;;;19.00;64.30;;;;;;5050369;28;20057;-45
2023/12/14 10:48:53;;;;;;;137.95;61.80;;;19.10;64.20;;;;;;5055820;28;20092;-47
2023/12/14 10:51:21;;;;;;;138.32;61.55;;;19.00;65.20;;;;;;5057461;28;20128;-38
2023/12/14 10:53:48;;;;;;;137.10;61.22;;;18.90;66.20;;;;;;5058382;28;20044;-36
2023/12/14 10:56:15;;;;;;;136.23;61.30;;;18.80;67.10;;;;;;5054892;28;20104;-40
2023/12/14 10:58:56;;;;;;;134.65;60.60;;;18.70;67.80;;;;;;5052195;28;20098;-36
2023/12/14 11:01:26;;;;;;;135.57;60.53;;;18.70;68.30;;;;;;5052637;28;20052;-37
2023/12/14 11:03:56;;;;;;;134.67;60.53;;;18.70;68.50;;;;;;5055432;28;20464;-40
2023/12/14 11:06:31;;;;;;;137.90;61.72;;;18.70;68.60;;;;;;5052482;28;20060;-39
2023/12/14 11:09:00;;;;;;;135.30;60.47;;;18.80;68.80;;;;;;5053137;28;20150;-41
2023/12/14 11:11:30;;;;;;;137.70;61.63;;;18.70;69.00;;;;;;5051729;28;20069;-36
2023/12/14 11:13:56;;;;;;;137.50;61.42;;;18.70;67.60;;;;;;5050618;28;20037;-42
2023/12/14 11:16:28;;;;;;;138.15;61.60;;;18.80;67.30;;;;;;5050720;28;20057;-35
2023/12/14 11:19:22;;;;;;;138.52;61.72;;;19.00;65.70;;;;;;5048918;28;20542;-36
2023/12/14 11:22:08;;;;;;;140.70;61.38;;;19.00;64.70;;;;;;5049626;28;20045;-36
2023/12/14 11:24:42;;;;;;;139.43;62.05;;;19.10;64.10;;;;;;5042022;28;20100;-38
2023/12/14 11:27:08;;;;;;;136.63;60.88;;;19.20;63.50;;;;;;5047940;28;20102;-39
2023/12/14 11:29:35;;;;;;;139.45;61.78;;;19.20;63.00;;;;;;5052263;28;20385;-40
2023/12/14 11:32:01;;;;;;;140.15;60.90;;;19.20;63.00;;;;;;5051860;28;21045;-39
2023/12/14 11:34:27;;;;;;;136.75;61.38;;;19.20;62.80;;;;;;5053231;28;20053;-38
2023/12/14 11:36:55;;;;;;;138.15;61.22;;;19.20;62.60;;;;;;5053802;28;20061;-38
2023/12/14 11:39:21;;;;;;;138.95;61.38;;;19.20;63.30;;;;;;5052612;28;20029;-40
2023/12/14 11:42:03;;;;;;;138.98;61.90;;;19.20;62.20;;;;;;5057819;28;20032;-39
2023/12/14 11:44:30;;;;;;;139.50;61.50;;;19.30;62.10;;;;;;5047999;28;20037;-39
2023/12/14 11:46:56;;;;;;;138.85;61.40;;;19.20;61.90;;;;;;5049585;28;20828;-38
2023/12/14 11:49:26;;;;;;;140.25;61.70;;;19.20;61.90;;;;;;5050436;28;20064;-38
2023/12/14 11:51:54;;;;;;;139.05;61.10;;;19.20;62.00;;;;;;5041017;28;20836;-43
2023/12/14 11:54:20;;;;;;;138.07;61.08;;;19.30;61.60;;;;;;5046348;28;20037;-43
2023/12/14 11:56:47;;;;;;;138.75;60.78;;;19.30;61.60;;;;;;5045171;28;20081;-42
2023/12/14 11:59:15;;;;;;;140.95;61.45;;;19.40;61.40;;;;;;5047936;28;20048;-41
2023/12/14 12:02:00;;;;;;;137.38;60.58;;;19.40;61.30;;;;;;5049313;28;20203;-43
2023/12/14 12:04:27;;;;;;;144.25;61.45;;;19.50;61.30;;;;;;5054315;28;20041;-42
2023/12/14 12:07:04;;;;;;;137.52;60.08;;;19.50;61.30;;;;;;5051757;28;20045;-41
2023/12/14 12:09:41;;;;;;;139.82;60.40;;;19.50;60.90;;;;;;5054119;28;20111;-44
2023/12/14 12:12:12;;;;;;;140.00;60.63;;;19.50;60.80;;;;;;5051708;28;20049;-42
2023/12/14 12:14:39;;;;;;;138.38;60.63;;;19.50;60.80;;;;;;5053070;28;20068;-46